Time;durP1;ratioP1;P1;durP2;ratioP2;P2;SDS_P1;SDS_P2;PMS_P1;PMS_P2;Temp;Humidity;BMP_temperature;BMP_pressure;BME280_temperature;BME280_humidity;BME280_pressure;Samples;Min_cycle;Max_cycle;Signal;HPM_P1;HPM_P2
2022/09/10 00:02:17;;;;;;;28.00;21.20;;;;;;;15.91;89.73;98181.65;105316;1281;138826;-67
2022/09/10 00:04:45;;;;;;;29.70;21.20;;;;;;;15.92;89.97;98184.77;105353;1283;24118;-67
2022/09/10 00:07:12;;;;;;;27.50;21.00;;;;;;;15.91;89.97;98181.65;105170;1283;138654;-67
2022/09/10 00:09:38;;;;;;;30.10;21.70;;;;;;;15.91;90.02;98182.81;105298;1283;22728;-67
2022/09/10 00:12:05;;;;;;;32.40;21.50;;;;;;;15.90;90.13;98179.46;105266;1283;22540;-68
2022/09/10 00:14:32;;;;;;;30.00;22.20;;;;;;;15.89;90.30;98175.73;105188;1283;138921;-67
2022/09/10 00:16:59;;;;;;;31.00;22.70;;;;;;;15.89;90.19;98175.24;105216;1283;26632;-67
2022/09/10 00:19:27;;;;;;;33.40;24.10;;;;;;;15.87;90.10;98173.39;105155;1283;138578;-67
2022/09/10 00:21:54;;;;;;;34.70;23.70;;;;;;;15.84;90.43;98174.14;105299;1283;24396;-67
2022/09/10 00:24:21;;;;;;;33.90;24.30;;;;;;;15.82;90.40;98172.00;105158;1283;138717;-68
2022/09/10 00:26:49;;;;;;;32.50;22.70;;;;;;;15.81;90.63;98173.33;105265;1283;26931;-67
2022/09/10 00:29:17;;;;;;;35.40;24.50;;;;;;;15.81;90.43;98170.14;105521;1281;22545;-68
2022/09/10 00:31:44;;;;;;;35.40;23.80;;;;;;;15.82;90.63;98176.02;105219;1281;138574;-68
2022/09/10 00:34:13;;;;;;;30.00;23.10;;;;;;;15.81;90.65;98178.00;105303;1283;25627;-67
2022/09/10 00:36:42;;;;;;;34.10;24.50;;;;;;;15.81;90.86;98176.19;105246;1283;138959;-68
2022/09/10 00:39:13;;;;;;;40.30;25.00;;;;;;;15.83;90.75;98176.94;105311;1281;22707;-67
2022/09/10 00:41:43;;;;;;;40.60;25.80;;;;;;;15.83;90.87;98171.89;104125;1281;1692050;-67
2022/09/10 00:44:38;;;;;;;38.30;25.20;;;;;;;15.85;90.67;98166.72;105265;1281;138942;-68
2022/09/10 00:47:11;;;;;;;33.30;24.80;;;;;;;15.85;90.79;98160.77;105291;1281;22557;-68
2022/09/10 00:49:43;;;;;;;36.50;25.30;;;;;;;15.83;90.52;98158.76;105204;1281;139061;-68
2022/09/10 00:52:11;;;;;;;35.00;24.10;;;;;;;15.81;90.74;98160.15;105268;1281;22546;-68
2022/09/10 00:54:40;;;;;;;36.10;24.70;;;;;;;15.77;90.82;98162.98;105345;1281;139778;-68
2022/09/10 00:57:12;;;;;;;38.20;25.00;;;;;;;15.74;90.88;98160.73;105321;1283;24181;-68
2022/09/10 00:59:42;;;;;;;38.70;24.80;;;;;;;15.72;91.02;98156.83;105313;1281;22577;-68
2022/09/10 01:02:10;;;;;;;39.80;26.00;;;;;;;15.70;90.92;98159.52;105255;1281;138613;-68
2022/09/10 01:04:38;;;;;;;36.70;27.00;;;;;;;15.69;90.95;98159.39;105322;1281;24444;-68
2022/09/10 01:07:08;;;;;;;38.50;26.60;;;;;;;15.70;91.13;98158.05;105240;1283;138845;-69
2022/09/10 01:09:38;;;;;;;36.40;25.60;;;;;;;15.70;91.11;98161.52;105298;1283;24322;-68
2022/09/10 01:12:14;;;;;;;36.10;24.10;;;;;;;15.70;91.34;98157.94;105418;1280;24356;-68
2022/09/10 01:15:24;;;;;;;38.60;25.70;;;;;;;15.70;90.78;98154.81;105212;1281;138590;-68
2022/09/10 01:18:17;;;;;;;37.90;25.50;;;;;;;15.68;91.06;98153.30;105239;1283;25056;-68
2022/09/10 01:20:55;;;;;;;38.50;24.70;;;;;;;15.68;91.23;98155.88;105250;1281;138423;-69
2022/09/10 01:23:56;;;;;;;45.10;26.20;;;;;;;15.67;91.39;98155.39;105387;1281;23966;-69
2022/09/10 01:26:40;;;;;;;43.30;26.90;;;;;;;15.69;91.35;98163.84;105215;1281;138588;-68
2022/09/10 01:29:16;;;;;;;42.10;28.00;;;;;;;15.70;91.48;98162.83;105313;1281;22722;-69
2022/09/10 01:31:59;;;;;;;39.10;25.40;;;;;;;15.73;91.60;98167.42;105259;1281;138546;-68
2022/09/10 01:34:31;;;;;;;35.40;26.20;;;;;;;15.74;91.36;98168.42;105261;1281;24141;-68
2022/09/10 01:37:07;;;;;;;42.50;25.60;;;;;;;15.73;91.32;98170.45;105277;1281;138933;-68
2022/09/10 01:39:36;;;;;;;41.70;27.90;;;;;;;15.73;91.44;98174.30;105256;1283;22548;-68
2022/09/10 01:42:03;;;;;;;39.70;26.30;;;;;;;15.73;91.33;98168.41;105328;1281;24234;-68
2022/09/10 01:44:48;;;;;;;40.70;26.00;;;;;;;15.75;91.30;98166.27;105218;1281;138728;-69
2022/09/10 01:47:34;;;;;;;39.40;26.40;;;;;;;15.75;91.35;98154.05;105304;1281;22563;-68
2022/09/10 01:50:15;;;;;;;43.50;26.40;;;;;;;15.75;91.35;98158.21;105207;1281;138982;-68
2022/09/10 01:53:02;;;;;;;36.90;25.50;;;;;;;15.75;91.42;98158.70;105358;1280;25548;-69
2022/09/10 01:55:32;;;;;;;36.30;26.20;;;;;;;15.75;91.36;98150.20;105196;1281;138906;-69
2022/09/10 01:58:18;;;;;;;40.30;26.90;;;;;;;15.74;91.36;98153.70;105303;1281;25255;-68
2022/09/10 02:00:57;;;;;;;38.80;26.20;;;;;;;15.75;91.42;98153.38;105214;1281;138906;-69
2022/09/10 02:03:25;;;;;;;36.30;25.00;;;;;;;15.75;91.46;98150.40;105085;1283;22544;-69
2022/09/10 02:05:55;;;;;;;37.00;26.50;;;;;;;15.75;91.24;98149.87;105009;1283;25417;-69
2022/09/10 02:08:29;;;;;;;37.60;25.00;;;;;;;15.76;91.36;98148.54;105241;1281;139649;-69
2022/09/10 02:11:00;;;;;;;36.80;25.40;;;;;;;15.78;91.51;98152.00;105354;1283;24380;-69
2022/09/10 02:13:33;;;;;;;39.10;26.10;;;;;;;15.78;91.34;98148.52;105202;1283;138573;-69
2022/09/10 02:16:33;;;;;;;38.60;25.70;;;;;;;15.78;91.10;98145.30;105293;1283;22559;-70
2022/09/10 02:19:01;;;;;;;34.40;24.00;;;;;;;15.78;91.37;98146.23;105212;1283;138774;-68
2022/09/10 02:21:28;;;;;;;39.40;25.40;;;;;;;15.79;91.19;98143.31;105055;1283;30526;-67
2022/09/10 02:24:04;;;;;;;40.40;26.90;;;;;;;15.78;91.08;98137.77;105351;1283;22567;-67
2022/09/10 02:26:32;;;;;;;40.30;25.60;;;;;;;15.77;91.01;98133.05;105242;1283;139243;-67
2022/09/10 02:29:00;;;;;;;38.80;26.60;;;;;;;15.77;90.99;98130.98;105004;1283;24450;-68
2022/09/10 02:31:28;;;;;;;39.70;25.80;;;;;;;15.77;91.10;98127.77;105431;1283;139155;-67
2022/09/10 02:33:55;;;;;;;42.00;27.20;;;;;;;15.76;90.83;98120.92;105285;1283;22547;-67
2022/09/10 02:36:24;;;;;;;45.30;28.40;;;;;;;15.74;90.99;98116.48;105193;1283;138805;-68
2022/09/10 02:38:52;;;;;;;43.60;27.20;;;;;;;15.74;91.00;98118.29;105349;1281;22560;-67
2022/09/10 02:41:21;;;;;;;42.40;27.90;;;;;;;15.73;91.08;98121.52;105331;1281;25277;-67
2022/09/10 02:43:48;;;;;;;44.50;28.10;;;;;;;15.74;91.34;98125.04;105229;1280;138558;-67
2022/09/10 02:46:15;;;;;;;45.60;30.20;;;;;;;15.76;91.60;98127.67;105307;1283;25450;-67
2022/09/10 02:48:42;;;;;;;46.50;29.60;;;;;;;15.77;91.62;98118.77;105185;1283;139379;-67
2022/09/10 02:51:11;;;;;;;43.00;27.40;;;;;;;15.77;91.36;98111.37;105277;1283;22580;-67
2022/09/10 02:53:38;;;;;;;54.40;31.80;;;;;;;15.76;91.31;98106.75;105394;1281;22636;-67
2022/09/10 02:56:06;;;;;;;53.50;31.30;;;;;;;15.74;91.28;98104.12;105188;1281;138665;-67
2022/09/10 02:58:33;;;;;;;58.30;33.80;;;;;;;15.73;91.25;98103.67;105057;1282;22608;-67
2022/09/10 03:01:09;;;;;;;56.20;34.30;;;;;;;15.70;91.15;98102.43;105200;1280;139002;-67
2022/09/10 03:03:38;;;;;;;59.60;33.30;;;;;;;15.70;91.23;98102.23;105303;1281;22559;-67
2022/09/10 03:06:05;;;;;;;57.90;33.00;;;;;;;15.68;91.23;98094.98;105419;1281;24306;-67
2022/09/10 03:08:33;;;;;;;54.90;32.10;;;;;;;15.68;91.33;98102.63;105236;1283;138495;-70
2022/09/10 03:11:00;;;;;;;56.90;33.40;;;;;;;15.63;91.14;98110.02;105308;1281;22563;-70
2022/09/10 03:13:28;;;;;;;59.50;33.70;;;;;;;15.60;91.23;98117.34;105222;1281;138734;-70
2022/09/10 03:16:03;;;;;;;59.30;33.20;;;;;;;15.56;91.40;98120.45;105386;1281;22567;-69
2022/09/10 03:18:30;;;;;;;54.30;32.70;;;;;;;15.55;91.49;98120.34;105210;1281;138874;-69
2022/09/10 03:21:09;;;;;;;56.70;33.30;;;;;;;15.55;91.53;98119.02;105316;1281;22803;-70
2022/09/10 03:23:37;;;;;;;62.00;32.80;;;;;;;15.55;91.87;98116.05;105393;1281;22547;-69
2022/09/10 03:26:05;;;;;;;63.20;34.80;;;;;;;15.55;91.70;98117.65;105221;1281;139298;-69
2022/09/10 03:28:32;;;;;;;59.70;33.70;;;;;;;15.53;91.90;98110.26;105287;1281;24234;-70
2022/09/10 03:31:00;;;;;;;54.90;32.30;;;;;;;15.54;91.79;98111.95;105236;1281;139407;-69
2022/09/10 03:33:28;;;;;;;62.30;33.50;;;;;;;15.54;91.98;98111.40;105341;1280;22559;-69
2022/09/10 03:35:55;;;;;;;59.80;33.30;;;;;;;15.54;92.12;98116.19;105295;1282;22542;-69
2022/09/10 03:38:28;;;;;;;62.60;34.30;;;;;;;15.49;91.89;98114.69;105232;1281;138707;-70
2022/09/10 03:40:55;;;;;;;64.50;35.90;;;;;;;15.46;92.40;98113.83;105308;1281;25412;-69
2022/09/10 03:43:22;;;;;;;65.70;35.10;;;;;;;15.46;92.78;98108.55;105167;1283;138885;-69
2022/09/10 03:45:50;;;;;;;61.50;34.40;;;;;;;15.49;92.92;98109.25;105352;1281;22559;-70
2022/09/10 03:48:19;;;;;;;70.50;36.80;;;;;;;15.52;93.07;98101.05;105391;1281;25414;-69
2022/09/10 03:50:50;;;;;;;64.60;35.50;;;;;;;15.53;92.81;98097.58;105029;1283;22563;-70
2022/09/10 03:53:18;;;;;;;65.30;34.40;;;;;;;15.54;92.64;98101.45;105341;1281;30716;-69
2022/09/10 03:55:47;;;;;;;58.80;33.30;;;;;;;15.53;92.77;98104.00;104949;1283;138500;-69
2022/09/10 03:58:16;;;;;;;57.30;33.40;;;;;;;15.54;92.82;98106.02;105395;1281;25433;-69
2022/09/10 04:00:45;;;;;;;53.70;30.80;;;;;;;15.54;92.94;98103.55;105293;1281;138750;-69
2022/09/10 04:03:16;;;;;;;58.80;33.00;;;;;;;15.53;92.57;98094.95;105316;1281;22538;-67
2022/09/10 04:05:42;;;;;;;56.00;31.70;;;;;;;15.51;92.64;98090.95;105280;1283;22572;-67
2022/09/10 04:08:13;;;;;;;55.20;32.20;;;;;;;15.48;92.77;98089.11;105231;1281;138519;-67
2022/09/10 04:10:42;;;;;;;57.40;30.90;;;;;;;15.48;93.19;98092.67;105290;1281;24328;-68
2022/09/10 04:13:10;;;;;;;49.70;29.70;;;;;;;15.49;93.35;98100.74;105254;1281;138596;-67
2022/09/10 04:15:39;;;;;;;48.30;29.40;;;;;;;15.50;93.41;98099.74;105350;1281;25365;-67
2022/09/10 04:18:07;;;;;;;43.00;27.40;;;;;;;15.50;93.43;98098.04;105385;1281;22565;-67
2022/09/10 04:20:35;;;;;;;39.30;25.70;;;;;;;15.50;93.60;98095.52;105279;1281;138594;-67
2022/09/10 04:23:09;;;;;;;39.30;26.80;;;;;;;15.50;93.53;98091.02;105274;1281;24130;-67
2022/09/10 04:25:37;;;;;;;38.70;23.80;;;;;;;15.50;93.56;98085.64;105234;1281;138532;-67
2022/09/10 04:28:04;;;;;;;43.00;25.70;;;;;;;15.50;93.57;98085.20;105293;1283;23923;-66
2022/09/10 04:30:32;;;;;;;35.10;21.90;;;;;;;15.52;93.78;98086.17;105225;1281;138673;-66
2022/09/10 04:33:01;;;;;;;30.70;20.40;;;;;;;15.52;93.66;98088.64;105300;1280;22548;-66
2022/09/10 04:35:32;;;;;;;32.20;21.80;;;;;;;15.51;93.74;98095.27;105329;1281;25303;-67
2022/09/10 04:38:01;;;;;;;34.30;22.50;;;;;;;15.51;93.92;98096.88;105244;1281;138947;-66
2022/09/10 04:40:28;;;;;;;36.60;23.60;;;;;;;15.53;94.13;98091.33;105285;1281;22552;-66
2022/09/10 04:42:55;;;;;;;37.10;24.00;;;;;;;15.53;93.88;98091.83;105155;1281;138818;-66
2022/09/10 04:45:22;;;;;;;36.90;24.20;;;;;;;15.53;94.08;98088.30;105265;1281;25439;-66
2022/09/10 04:47:51;;;;;;;35.10;23.50;;;;;;;15.55;94.19;98086.92;105297;1281;22636;-67
2022/09/10 04:50:20;;;;;;;33.70;22.10;;;;;;;15.56;94.03;98083.61;105194;1281;138617;-66
2022/09/10 04:53:06;;;;;;;33.70;22.10;;;;;;;15.57;94.07;98073.92;105258;1281;22542;-67
2022/09/10 04:55:38;;;;;;;33.80;22.30;;;;;;;15.57;93.61;98076.08;105270;1281;138531;-67
2022/09/10 04:58:05;;;;;;;34.40;22.70;;;;;;;15.57;93.66;98076.24;105312;1281;22555;-67
2022/09/10 05:00:33;;;;;;;31.80;21.90;;;;;;;15.58;93.84;98074.65;105162;1281;138749;-67
2022/09/10 05:02:59;;;;;;;31.40;21.00;;;;;;;15.60;93.97;98075.18;105253;1281;22537;-67
2022/09/10 05:05:27;;;;;;;32.10;21.10;;;;;;;15.61;93.79;98073.47;105252;1283;23364;-66
2022/09/10 05:07:54;;;;;;;32.70;20.70;;;;;;;15.61;93.56;98069.35;105166;1282;138577;-66
2022/09/10 05:10:22;;;;;;;29.80;20.30;;;;;;;15.60;93.74;98066.17;105245;1282;22551;-66
2022/09/10 05:12:49;;;;;;;29.60;20.00;;;;;;;15.61;94.05;98063.76;105157;1281;138710;-67
2022/09/10 05:15:16;;;;;;;27.90;17.90;;;;;;;15.64;93.79;98066.04;105313;1281;25232;-66
2022/09/10 05:17:43;;;;;;;29.10;18.90;;;;;;;15.65;93.98;98065.92;105278;1283;24285;-67
2022/09/10 05:20:10;;;;;;;26.80;17.70;;;;;;;15.68;93.76;98073.47;105185;1283;138538;-67
2022/09/10 05:22:44;;;;;;;30.80;18.20;;;;;;;15.70;93.83;98074.38;105279;1281;22668;-67
2022/09/10 05:25:11;;;;;;;28.00;18.20;;;;;;;15.71;93.75;98071.95;105177;1283;138632;-67
2022/09/10 05:27:38;;;;;;;27.50;17.70;;;;;;;15.72;93.73;98069.98;105314;1283;22562;-67
2022/09/10 05:30:08;;;;;;;28.00;18.20;;;;;;;15.73;93.65;98074.84;105395;1281;25366;-67
2022/09/10 05:32:35;;;;;;;26.00;18.10;;;;;;;15.75;93.77;98070.52;105325;1281;138337;-67
2022/09/10 05:35:04;;;;;;;26.10;18.50;;;;;;;15.76;93.58;98071.66;105322;1281;25421;-67
2022/09/10 05:37:32;;;;;;;30.10;19.30;;;;;;;15.74;93.33;98073.26;105251;1281;138511;-67
2022/09/10 05:39:58;;;;;;;27.60;18.40;;;;;;;15.73;93.38;98072.33;105349;1281;25362;-67
2022/09/10 05:42:26;;;;;;;27.20;18.20;;;;;;;15.72;93.34;98074.63;105247;1281;138733;-67
2022/09/10 05:44:52;;;;;;;27.60;18.20;;;;;;;15.70;92.87;98073.55;105324;1281;22791;-67
2022/09/10 05:47:20;;;;;;;29.00;18.80;;;;;;;15.69;92.99;98072.58;105323;1281;24444;-67
2022/09/10 05:49:48;;;;;;;30.10;19.00;;;;;;;15.69;93.40;98064.78;105216;1281;139315;-67
2022/09/10 05:52:16;;;;;;;26.50;19.10;;;;;;;15.71;93.40;98066.85;105343;1281;25502;-67
2022/09/10 05:54:43;;;;;;;30.50;18.40;;;;;;;15.73;93.37;98062.50;105222;1281;138682;-67
2022/09/10 05:57:11;;;;;;;28.60;18.50;;;;;;;15.75;93.39;98068.15;105346;1281;24326;-67
2022/09/10 05:59:38;;;;;;;25.70;17.60;;;;;;;15.77;93.69;98063.98;105339;1281;24228;-67
2022/09/10 06:02:06;;;;;;;29.10;17.80;;;;;;;15.78;93.64;98061.38;105219;1280;138688;-67
2022/09/10 06:04:33;;;;;;;27.80;19.10;;;;;;;15.78;93.59;98058.20;105315;1281;23955;-67
2022/09/10 06:07:00;;;;;;;28.50;18.00;;;;;;;15.81;93.39;98059.60;105232;1281;138819;-67
2022/09/10 06:09:28;;;;;;;28.00;17.30;;;;;;;15.82;93.63;98061.95;105390;1281;22537;-67
2022/09/10 06:12:17;;;;;;;24.90;17.30;;;;;;;15.84;93.41;98062.33;105333;1281;22532;-67
2022/09/10 06:14:45;;;;;;;28.20;18.00;;;;;;;15.86;93.67;98058.02;105229;1281;138440;-67
2022/09/10 06:17:12;;;;;;;26.00;17.70;;;;;;;15.90;93.60;98053.19;105297;1281;22580;-67
2022/09/10 06:19:43;;;;;;;25.30;17.00;;;;;;;15.93;93.39;98054.53;105231;1281;138695;-67
2022/09/10 06:22:11;;;;;;;26.20;17.60;;;;;;;15.95;93.40;98055.02;105355;1281;24389;-67
2022/09/10 06:24:40;;;;;;;25.30;17.80;;;;;;;15.98;93.30;98053.34;104988;1283;138704;-67
2022/09/10 06:27:08;;;;;;;25.20;17.50;;;;;;;16.00;93.21;98054.69;105277;1281;23915;-67
2022/09/10 06:29:35;;;;;;;25.60;17.80;;;;;;;16.01;93.07;98057.70;105336;1280;22877;-67
2022/09/10 06:32:03;;;;;;;25.00;17.40;;;;;;;16.04;93.09;98053.05;105243;1281;138536;-67
2022/09/10 06:34:31;;;;;;;24.40;17.90;;;;;;;16.07;93.10;98050.29;105263;1281;25536;-67
2022/09/10 06:37:02;;;;;;;26.90;17.20;;;;;;;16.11;93.25;98052.10;105192;1281;139309;-67
2022/09/10 06:39:29;;;;;;;25.60;17.00;;;;;;;16.15;93.01;98054.48;105403;1281;25382;-67
2022/09/10 06:42:00;;;;;;;24.20;16.60;;;;;;;16.20;93.25;98058.54;105340;1281;23086;-67
2022/09/10 06:44:45;;;;;;;24.10;17.00;;;;;;;16.23;92.86;98062.56;105366;1281;138468;-67
2022/09/10 06:47:39;;;;;;;24.40;16.80;;;;;;;16.24;92.76;98070.70;105320;1281;24374;-67
2022/09/10 06:50:07;;;;;;;23.80;16.50;;;;;;;16.25;92.89;98070.79;105218;1281;138692;-67
2022/09/10 06:52:38;;;;;;;22.20;15.90;;;;;;;16.28;92.85;98072.73;105377;1281;22544;-67
2022/09/10 06:55:09;;;;;;;25.80;17.30;;;;;;;16.30;92.70;98071.90;105106;1281;139020;-67
2022/09/10 06:57:44;;;;;;;25.70;17.30;;;;;;;16.30;92.99;98074.58;105363;1281;22554;-67
2022/09/10 07:00:13;;;;;;;25.20;16.90;;;;;;;16.30;92.77;98077.17;105308;1281;23224;-67
2022/09/10 07:02:41;;;;;;;27.60;16.90;;;;;;;16.29;92.49;98076.90;105332;1281;138352;-67
2022/09/10 07:05:09;;;;;;;29.10;18.10;;;;;;;16.28;92.68;98076.36;105261;1281;22781;-67
2022/09/10 07:07:37;;;;;;;22.30;15.10;;;;;;;16.28;92.42;98074.87;105196;1281;140924;-67
2022/09/10 07:10:06;;;;;;;;;;;;;;;16.29;92.50;98078.16;105369;1281;24224;-67
2022/09/10 07:12:33;;;;;;;25.00;16.20;;;;;;;16.27;92.29;98072.70;105175;1281;125210;-67
2022/09/10 07:15:01;;;;;;;22.90;15.30;;;;;;;16.25;92.35;98074.63;105321;1281;25251;-67
2022/09/10 07:17:33;;;;;;;20.80;15.00;;;;;;;16.24;92.26;98073.11;105238;1281;24812;-67
2022/09/10 07:20:00;;;;;;;23.90;16.30;;;;;;;16.23;92.11;98071.36;105178;1281;138546;-67
2022/09/10 07:22:36;;;;;;;22.20;14.80;;;;;;;16.23;92.63;98068.13;105339;1280;22613;-67
2022/09/10 07:25:07;;;;;;;20.50;14.60;;;;;;;16.25;92.60;98067.59;105222;1281;138776;-67
2022/09/10 07:27:49;;;;;;;23.80;15.80;;;;;;;16.28;92.57;98070.66;105331;1281;22562;-67
2022/09/10 07:30:18;;;;;;;23.40;14.70;;;;;;;16.31;92.52;98073.75;105379;1281;22782;-67
2022/09/10 07:32:48;;;;;;;23.40;15.20;;;;;;;16.32;92.52;98073.42;105382;1281;22557;-67
2022/09/10 07:35:17;;;;;;;22.30;15.50;;;;;;;16.34;92.39;98075.48;105301;1283;22624;-67
2022/09/10 07:37:45;;;;;;;22.20;14.70;;;;;;;16.36;92.11;98077.77;105227;1281;138542;-67
2022/09/10 07:40:13;;;;;;;21.50;14.30;;;;;;;16.35;92.05;98080.85;105290;1281;24284;-67
2022/09/10 07:42:43;;;;;;;21.70;14.50;;;;;;;16.34;91.89;98079.54;105228;1281;139107;-67
2022/09/10 07:45:15;;;;;;;23.40;16.20;;;;;;;16.35;91.98;98079.11;105364;1280;22554;-67
2022/09/10 07:47:43;;;;;;;24.90;15.30;;;;;;;16.34;92.04;98080.42;105337;1281;30852;-67
2022/09/10 07:50:11;;;;;;;21.00;14.60;;;;;;;16.33;91.82;98078.90;105211;1281;138923;-67
2022/09/10 07:52:38;;;;;;;24.30;15.90;;;;;;;16.32;91.99;98081.77;105316;1281;24451;-67
2022/09/10 07:55:06;;;;;;;23.50;15.50;;;;;;;16.32;92.00;98083.96;105217;1281;138702;-67
2022/09/10 07:57:36;;;;;;;20.40;14.50;;;;;;;16.31;91.82;98074.19;105341;1281;24320;-67
2022/09/10 08:00:13;;;;;;;22.30;14.70;;;;;;;16.31;91.65;98070.66;105314;1283;23368;-67
2022/09/10 08:02:46;;;;;;;18.60;11.40;;;;;;;16.30;91.34;98071.13;105249;1281;138364;-67
2022/09/10 08:05:18;;;;;;;19.40;12.80;;;;;;;16.21;90.98;98073.75;105392;1281;24325;-67
2022/09/10 08:07:46;;;;;;;17.90;13.00;;;;;;;16.11;91.27;98072.37;105263;1280;138811;-67
2022/09/10 08:10:13;;;;;;;16.60;11.70;;;;;;;16.06;91.93;98077.04;105371;1281;25334;-67
2022/09/10 08:12:42;;;;;;;16.20;11.40;;;;;;;16.01;91.90;98081.54;105229;1281;138722;-67
2022/09/10 08:15:10;;;;;;;14.20;10.80;;;;;;;15.98;92.19;98085.80;105383;1281;25275;-67
2022/09/10 08:17:38;;;;;;;18.90;12.10;;;;;;;16.00;92.48;98086.81;105409;1281;25249;-66
2022/09/10 08:20:07;;;;;;;15.50;11.50;;;;;;;16.01;92.72;98084.28;105139;1283;139075;-66
2022/09/10 08:22:36;;;;;;;16.30;11.30;;;;;;;16.07;93.13;98084.17;105293;1283;24450;-66
2022/09/10 08:25:04;;;;;;;17.20;11.90;;;;;;;16.12;93.20;98080.64;105120;1281;138667;-67
2022/09/10 08:27:34;;;;;;;15.90;11.40;;;;;;;16.19;92.91;98079.94;105322;1281;22760;-66
2022/09/10 08:30:02;;;;;;;16.40;12.00;;;;;;;16.23;92.64;98084.88;105296;1281;24208;-66
2022/09/10 08:32:30;;;;;;;16.60;11.00;;;;;;;16.27;92.50;98085.60;105235;1281;138635;-67
2022/09/10 08:34:57;;;;;;;15.00;11.00;;;;;;;16.31;92.46;98087.50;105333;1281;22674;-67
2022/09/10 08:37:26;;;;;;;17.80;11.40;;;;;;;16.34;92.08;98084.92;105131;1281;138806;-67
2022/09/10 08:39:54;;;;;;;17.10;11.80;;;;;;;16.37;92.13;98084.29;105317;1282;22601;-67
2022/09/10 08:42:45;;;;;;;16.00;11.30;;;;;;;16.43;92.46;98083.08;105091;1283;139424;-67
2022/09/10 08:45:21;;;;;;;;;;;;;;;16.48;92.01;98083.12;105291;1281;25174;-66
2022/09/10 08:47:54;;;;;;;12.80;9.30;;;;;;;16.49;91.55;98080.68;105206;1283;24520;-67
2022/09/10 08:50:37;;;;;;;13.50;9.30;;;;;;;16.52;91.81;98085.10;105207;1281;138978;-66
2022/09/10 08:53:31;;;;;;;11.80;9.10;;;;;;;16.60;91.98;98079.63;105375;1281;22737;-66
2022/09/10 08:56:04;;;;;;;11.80;8.70;;;;;;;16.69;91.83;98082.52;105245;1281;138555;-66
2022/09/10 08:58:43;;;;;;;10.00;7.60;;;;;;;16.77;91.50;98082.88;105268;1283;24298;-66
2022/09/10 09:01:35;;;;;;;4.50;4.00;;;;;;;16.81;90.87;98078.94;105263;1281;138292;-67
2022/09/10 09:04:15;;;;;;;4.00;3.60;;;;;;;16.82;89.88;98078.96;105486;1281;25253;-67
2022/09/10 09:06:50;;;;;;;4.00;3.30;;;;;;;16.89;89.90;98083.67;105187;1283;138337;-66
2022/09/10 09:09:17;;;;;;;3.80;3.40;;;;;;;16.95;89.71;98082.23;105398;1281;22556;-67
2022/09/10 09:12:04;;;;;;;3.90;3.20;;;;;;;17.03;89.77;98071.56;105324;1283;24304;-66
2022/09/10 09:14:45;;;;;;;4.00;3.20;;;;;;;17.08;88.47;98073.45;105191;1281;138160;-66
2022/09/10 09:17:14;;;;;;;3.70;3.30;;;;;;;17.11;88.48;98076.12;105273;1281;24026;-67
2022/09/10 09:20:17;;;;;;;3.20;2.90;;;;;;;17.10;88.54;98076.36;105181;1281;138511;-66
2022/09/10 09:22:54;;;;;;;3.20;2.90;;;;;;;17.07;88.51;98073.14;105284;1281;25455;-66
2022/09/10 09:25:31;;;;;;;3.90;3.20;;;;;;;17.01;88.93;98076.70;105230;1281;138424;-66
2022/09/10 09:28:04;;;;;;;3.00;2.60;;;;;;;16.97;89.21;98075.21;105250;1281;25358;-66
2022/09/10 09:30:48;;;;;;;3.20;2.60;;;;;;;16.93;88.70;98076.82;105078;1283;138358;-66
2022/09/10 09:33:23;;;;;;;3.40;2.90;;;;;;;16.90;89.09;98074.11;105327;1281;25256;-66
2022/09/10 09:35:56;;;;;;;2.90;2.60;;;;;;;16.95;89.79;98071.49;105305;1281;25280;-66
2022/09/10 09:38:33;;;;;;;3.50;2.80;;;;;;;17.00;90.14;98075.93;105158;1281;138206;-66
2022/09/10 09:41:06;;;;;;;4.80;2.40;;;;;;;17.04;89.29;98077.69;105248;1282;22519;-66
2022/09/10 09:44:09;;;;;;;4.60;2.80;;;;;;;17.06;89.00;98077.40;105217;1281;138610;-65
2022/09/10 09:46:37;;;;;;;2.90;2.60;;;;;;;17.11;89.14;98073.21;105328;1281;24309;-66
2022/09/10 09:49:14;;;;;;;2.50;2.30;;;;;;;17.11;88.30;98071.65;105153;1281;138485;-67
2022/09/10 09:51:48;;;;;;;2.40;1.90;;;;;;;17.13;88.17;98071.08;105319;1281;24470;-66
2022/09/10 09:54:21;;;;;;;2.40;2.20;;;;;;;17.16;87.96;98072.69;105339;1281;24407;-66
2022/09/10 09:56:50;;;;;;;2.80;1.90;;;;;;;17.22;87.69;98066.98;105379;1281;22548;-66
2022/09/10 09:59:28;;;;;;;2.80;2.10;;;;;;;17.27;87.90;98066.36;105303;1281;22566;-66
2022/09/10 10:02:05;;;;;;;2.30;2.10;;;;;;;17.34;87.41;98064.56;105164;1281;138263;-66
2022/09/10 10:04:33;;;;;;;2.40;2.10;;;;;;;17.31;86.86;98066.30;105315;1281;25367;-66
2022/09/10 10:07:01;;;;;;;2.60;2.10;;;;;;;17.31;86.90;98063.61;105231;1281;138568;-66
2022/09/10 10:09:31;;;;;;;2.50;2.20;;;;;;;17.32;87.06;98056.65;105300;1282;22732;-66
2022/09/10 10:12:06;;;;;;;2.20;1.90;;;;;;;17.41;87.76;98056.02;105330;1281;25792;-66
2022/09/10 10:14:40;;;;;;;2.50;2.20;;;;;;;17.55;87.76;98050.12;105213;1281;138218;-66
2022/09/10 10:17:29;;;;;;;2.60;2.00;;;;;;;17.72;87.62;98051.45;105326;1281;25497;-67
2022/09/10 10:19:58;;;;;;;;;;;;;;;17.90;87.04;98047.34;105217;1283;138362;-67
2022/09/10 10:22:29;;;;;;;1.90;1.80;;;;;;;18.19;88.09;98042.90;105275;1283;22698;-67
2022/09/10 10:24:59;;;;;;;2.00;1.70;;;;;;;18.47;86.07;98040.95;105201;1283;138798;-66
2022/09/10 10:27:31;;;;;;;2.00;1.80;;;;;;;18.61;84.75;98038.96;105244;1283;23947;-67
2022/09/10 10:30:03;;;;;;;2.20;1.80;;;;;;;18.66;83.98;98041.61;105181;1283;24471;-66
2022/09/10 10:32:45;;;;;;;2.10;1.80;;;;;;;18.70;83.79;98040.98;105139;1283;138412;-67
2022/09/10 10:35:28;;;;;;;1.70;1.60;;;;;;;18.71;82.45;98044.71;105048;1283;25325;-67
2022/09/10 10:38:07;;;;;;;2.50;1.50;;;;;;;18.64;82.19;98041.11;105109;1283;138383;-67
2022/09/10 10:40:56;;;;;;;3.20;2.20;;;;;;;18.66;81.69;98045.38;105244;1281;24263;-66
2022/09/10 10:43:29;;;;;;;1.80;1.60;;;;;;;18.66;80.93;98047.52;104568;1289;138872;-67
2022/09/10 10:46:03;;;;;;;2.50;1.40;;;;;;;18.67;80.68;98049.02;104710;1289;22655;-67
2022/09/10 10:49:04;;;;;;;1.30;1.20;;;;;;;18.67;80.08;98047.21;104614;1287;138988;-66
2022/09/10 10:51:56;;;;;;;1.90;1.30;;;;;;;18.69;80.14;98042.72;104573;1286;30147;-67
2022/09/10 10:54:57;;;;;;;1.10;1.00;;;;;;;18.75;79.33;98042.96;104488;1288;138880;-67
2022/09/10 10:57:49;;;;;;;2.20;1.10;;;;;;;18.87;79.71;98044.33;104506;1287;22560;-66
2022/09/10 11:00:19;;;;;;;1.10;1.00;;;;;;;18.99;78.15;98043.47;104587;1287;25384;-66
2022/09/10 11:02:49;;;;;;;0.90;0.90;;;;;;;19.00;77.46;98043.22;104625;1288;138297;-67
2022/09/10 11:05:37;;;;;;;1.30;0.80;;;;;;;18.98;77.34;98041.89;104598;1289;23213;-67
2022/09/10 11:08:19;;;;;;;1.20;1.10;;;;;;;19.11;78.92;98044.45;104612;1288;138925;-67
2022/09/10 11:10:50;;;;;;;1.10;1.10;;;;;;;19.32;78.84;98046.96;104536;1289;22560;-67
2022/09/10 11:13:38;;;;;;;1.40;0.90;;;;;;;19.41;76.51;98045.80;104598;1288;139087;-66
2022/09/10 11:16:13;;;;;;;0.80;0.80;;;;;;;19.49;76.45;98040.14;104577;1289;22704;-67
2022/09/10 11:18:43;;;;;;;1.40;0.80;;;;;;;19.45;74.44;98038.29;104495;1289;138576;-67
2022/09/10 11:21:22;;;;;;;1.60;0.90;;;;;;;19.31;72.48;98038.35;104836;1283;25396;-67
2022/09/10 11:24:03;;;;;;;0.70;0.70;;;;;;;19.13;72.62;98036.42;105123;1283;23942;-67
2022/09/10 11:26:38;;;;;;;1.10;0.90;;;;;;;19.03;72.75;98035.98;105108;1283;138403;-67
2022/09/10 11:29:57;;;;;;;1.80;1.00;;;;;;;18.94;72.75;98033.09;105192;1283;24348;-67
2022/09/10 11:32:49;;;;;;;0.70;0.60;;;;;;;18.79;73.17;98035.39;103946;1292;139145;-67
2022/09/10 11:35:22;;;;;;;2.70;1.10;;;;;;;18.71;74.60;98034.77;104080;1292;22662;-67